Time;durP1;ratioP1;P1;durP2;ratioP2;P2;SDS_P1;SDS_P2;PMS_P1;PMS_P2;Temp;Humidity;BMP_temperature;BMP_pressure;BME280_temperature;BME280_humidity;BME280_pressure;Samples;Min_cycle;Max_cycle;Signal;HPM_P1;HPM_P2
2022/07/28 08:50:57;;;;;;;3.90;1.38;;;21.90;66.30;;;;;;5604212;22;15045273;-85
2022/07/28 08:53:22;;;;;;;3.25;1.83;;;21.70;66.10;;;;;;6181114;23;20001;-81
2022/07/28 09:05:56;;;;;;;4.80;1.77;;;21.80;66.70;;;;;;6220784;23;20011;-79
2022/07/28 09:09:12;;;;;;;4.38;1.92;;;22.00;66.60;;;;;;6222898;23;20408;-86
2022/07/28 09:11:37;;;;;;;5.95;1.45;;;21.90;65.70;;;;;;6220747;23;20433;-79
2022/07/28 09:17:31;;;;;;;3.70;1.40;;;21.80;64.50;;;;;;6177719;22;20473;-81
2022/07/28 09:19:56;;;;;;;5.97;1.65;;;22.00;65.40;;;;;;6198222;23;20079;-81
2022/07/28 09:26:25;;;;;;;4.32;1.70;;;22.40;63.80;;;;;;6222068;23;20007;-81
2022/07/28 09:28:53;;;;;;;3.17;1.48;;;22.20;63.80;;;;;;6221626;23;20066;-75
2022/07/28 09:44:44;;;;;;;5.65;1.35;;;22.30;62.40;;;;;;6204296;23;20035;-70
2022/07/28 09:47:23;;;;;;;5.45;1.83;;;22.60;62.80;;;;;;6253104;23;20027;-73
2022/07/28 09:49:49;;;;;;;2.13;1.35;;;22.70;62.30;;;;;;6223154;23;20067;-72
2022/07/28 09:52:50;;;;;;;3.83;1.67;;;22.60;62.70;;;;;;6218785;23;20050;-70
2022/07/28 09:55:16;;;;;;;2.72;1.40;;;22.70;61.20;;;;;;6235688;23;20012;-70
2022/07/28 09:57:41;;;;;;;5.40;1.60;;;22.50;60.70;;;;;;6218497;23;20526;-76
2022/07/28 10:00:10;;;;;;;1.40;1.25;;;22.30;59.50;;;;;;6219095;23;20015;-82
2022/07/28 10:03:22;;;;;;;5.05;1.33;;;22.40;60.10;;;;;;6222034;23;20020;-84
2022/07/28 10:05:48;;;;;;;1.80;1.30;;;22.50;60.10;;;;;;6219630;23;20004;-82
2022/07/28 10:08:14;;;;;;;3.75;1.10;;;23.80;60.00;;;;;;6219522;23;20008;-80
2022/07/28 10:10:39;;;;;;;4.38;1.40;;;22.70;59.60;;;;;;6219388;23;20427;-83
2022/07/28 10:13:05;;;;;;;3.78;3.10;;;22.80;60.30;;;;;;6219363;23;20012;-79
2022/07/28 10:22:06;;;;;;;2.25;1.38;;;22.70;59.50;;;;;;6245729;23;20070;-85
2022/07/28 10:27:53;;;;;;;3.45;1.30;;;22.80;58.80;;;;;;6246188;23;20011;-81
2022/07/28 10:31:07;;;;;;;1.52;1.27;;;23.20;59.60;;;;;;6193940;23;20024;-84
2022/07/28 10:33:33;;;;;;;12.32;7.60;;;22.90;58.00;;;;;;6245953;23;19996;-79
2022/07/28 10:36:27;;;;;;;25.30;18.42;;;23.20;58.70;;;;;;6193964;23;19996;-83
2022/07/28 10:39:03;;;;;;;4.10;2.03;;;23.20;58.40;;;;;;6241012;23;20046;-79
2022/07/28 10:41:33;;;;;;;5.88;1.50;;;23.40;57.50;;;;;;6194133;23;20378;-79
2022/07/28 10:43:59;;;;;;;2.92;1.48;;;23.10;58.80;;;;;;6218329;23;20071;-78
2022/07/28 10:46:24;;;;;;;4.93;1.35;;;23.30;59.50;;;;;;6193293;23;20031;-77
2022/07/28 10:48:50;;;;;;;3.85;1.40;;;23.00;59.70;;;;;;6218532;23;20026;-76
2022/07/28 10:51:15;;;;;;;6.32;1.75;;;23.60;59.80;;;;;;6193557;23;20010;-76
2022/07/28 10:54:15;;;;;;;5.78;1.30;;;23.10;59.20;;;;;;6218604;23;20075;-77
2022/07/28 10:56:50;;;;;;;4.18;1.50;;;23.00;60.20;;;;;;6210281;23;20015;-75
2022/07/28 10:59:24;;;;;;;5.18;1.80;;;23.30;60.40;;;;;;6242831;23;20004;-70
2022/07/28 11:01:50;;;;;;;19.52;15.15;;;23.10;60.90;;;;;;6218257;23;20007;-82
2022/07/28 11:04:46;;;;;;;59.85;26.33;;;23.20;59.50;;;;;;6245147;23;20004;-81
2022/07/28 11:10:58;;;;;;;139.82;82.53;;;23.40;60.70;;;;;;6007410;23;20359;-83
2022/07/28 11:16:24;;;;;;;14.77;4.88;;;23.60;93.30;;;;;;6102478;23;19959;-81
2022/07/28 11:22:34;;;;;;;58.75;23.42;;;23.40;73.20;;;;;;6093893;23;20041;-86
2022/07/28 11:25:00;;;;;;;30.45;16.02;;;24.20;78.90;;;;;;6218767;23;20030;-77
2022/07/28 11:27:41;;;;;;;51.42;17.38;;;24.90;91.00;;;;;;6245440;23;20000;-72
2022/07/28 11:30:10;;;;;;;58.65;23.40;;;24.10;70.10;;;;;;6245139;23;19999;-70
2022/07/28 11:32:54;;;;;;;70.47;28.25;;;24.20;91.10;;;;;;6218625;23;20004;-70
2022/07/28 11:35:23;;;;;;;322.35;106.80;;;24.70;86.50;;;;;;6245078;23;20017;-70
2022/07/28 11:38:01;;;;;;;121.95;40.65;;;24.80;89.60;;;;;;6218261;23;20008;-70
2022/07/28 11:40:33;;;;;;;77.07;40.75;;;25.00;84.80;;;;;;6245140;23;20000;-69
2022/07/28 11:43:38;;;;;;;59.33;34.40;;;25.20;77.40;;;;;;6245215;23;19997;-70
2022/07/28 11:46:04;;;;;;;17.17;10.57;;;25.00;64.00;;;;;;6218775;23;20019;-70
2022/07/28 11:48:30;;;;;;;10.73;4.70;;;25.20;60.90;;;;;;6245149;23;20330;-69
2022/07/28 11:51:02;;;;;;;4.60;2.53;;;24.70;60.50;;;;;;6218378;23;20015;-69
2022/07/28 11:53:40;;;;;;;4.82;2.58;;;24.80;60.80;;;;;;6245612;23;20075;-69
2022/07/28 11:56:07;;;;;;;3.15;1.88;;;24.00;60.20;;;;;;6245428;23;20015;-70
2022/07/28 11:58:33;;;;;;;3.65;2.10;;;24.10;60.10;;;;;;6218816;23;20028;-70
2022/07/28 12:01:14;;;;;;;8.70;2.58;;;23.80;59.50;;;;;;6245317;23;20000;-69
2022/07/28 12:03:43;;;;;;;6.80;2.30;;;23.70;59.40;;;;;;6244814;23;19997;-70
2022/07/28 12:06:09;;;;;;;4.63;1.65;;;23.60;60.60;;;;;;6245010;23;20008;-70
2022/07/28 12:09:00;;;;;;;3.60;1.52;;;23.70;59.70;;;;;;6218169;23;20454;-70
2022/07/28 12:11:30;;;;;;;2.83;1.80;;;23.80;59.60;;;;;;6244724;23;20004;-70
2022/07/28 12:14:24;;;;;;;5.65;2.00;;;23.90;59.20;;;;;;6244749;23;20047;-70
2022/07/28 12:16:50;;;;;;;2.97;1.58;;;23.70;58.90;;;;;;6242180;23;20008;-70
2022/07/28 12:19:17;;;;;;;2.63;1.33;;;23.60;59.90;;;;;;6216890;23;20030;-70
2022/07/28 12:21:55;;;;;;;3.35;1.27;;;23.60;60.20;;;;;;6217591;23;20003;-72
2022/07/28 12:24:31;;;;;;;2.97;1.58;;;23.60;59.70;;;;;;6244295;23;19997;-70
2022/07/28 12:26:59;;;;;;;2.30;1.42;;;23.50;59.50;;;;;;6239946;23;20000;-72
2022/07/28 12:32:52;;;;;;;2.95;1.50;;;23.40;60.60;;;;;;6193623;23;20018;-83
2022/07/28 12:36:07;;;;;;;3.53;1.60;;;24.00;59.80;;;;;;6150475;23;20032;-82
2022/07/28 12:38:42;;;;;;;2.25;1.65;;;23.60;60.50;;;;;;6140053;23;20006;-82
2022/07/28 12:41:20;;;;;;;;;;;23.50;59.40;;;;;;6129081;23;20006;-83
2022/07/28 12:44:13;;;;;;;5.55;1.45;;;23.50;60.30;;;;;;6141608;23;19939;-85
2022/07/28 12:46:52;;;;;;;2.92;1.73;;;23.80;60.60;;;;;;6062608;23;20015;-82
2022/07/28 12:56:29;;;;;;;2.78;1.52;;;23.60;60.00;;;;;;6092087;23;20403;-87
2022/07/28 12:59:47;;;;;;;4.03;1.70;;;23.50;60.30;;;;;;6087593;23;20017;-85
2022/07/28 13:02:12;;;;;;;2.97;1.90;;;23.50;60.00;;;;;;6087296;23;20048;-71
2022/07/28 13:33:02;;;;;;;6.28;4.28;;;23.60;59.70;;;;;;6200574;23;20500;-80
2022/07/28 13:35:28;;;;;;;11.68;9.70;;;23.90;60.00;;;;;;6214224;23;19996;-80
2022/07/28 13:37:53;;;;;;;5.95;2.85;;;24.00;60.50;;;;;;6189158;23;20012;-79
2022/07/28 13:40:19;;;;;;;5.10;2.55;;;24.00;60.20;;;;;;6214176;23;20084;-78
2022/07/28 13:42:44;;;;;;;2.85;2.00;;;24.20;60.80;;;;;;6208051;23;20020;-69
2022/07/28 13:45:10;;;;;;;2.42;1.50;;;24.10;60.60;;;;;;6201814;23;20005;-69
2022/07/28 13:47:36;;;;;;;6.60;1.40;;;24.00;59.10;;;;;;6200845;23;20327;-69
2022/07/28 13:50:01;;;;;;;9.38;1.65;;;24.00;58.80;;;;;;6204253;23;20012;-68
2022/07/28 13:52:27;;;;;;;4.68;1.67;;;23.90;58.90;;;;;;6210587;23;20004;-68
2022/07/28 13:54:52;;;;;;;4.95;2.00;;;23.90;59.30;;;;;;6213758;23;20005;-69
2022/07/28 13:57:18;;;;;;;4.28;2.03;;;23.70;59.00;;;;;;6214359;23;19996;-69
2022/07/28 13:59:43;;;;;;;2.55;1.42;;;24.00;59.40;;;;;;6214637;23;20326;-68
2022/07/28 14:02:09;;;;;;;4.63;1.70;;;23.80;59.30;;;;;;6214721;23;20044;-68
2022/07/28 14:04:35;;;;;;;2.65;1.55;;;23.90;58.80;;;;;;6213584;23;20058;-68
2022/07/28 14:07:00;;;;;;;8.25;1.33;;;23.80;59.00;;;;;;6213569;23;20104;-70
2022/07/28 14:09:26;;;;;;;4.05;1.73;;;23.70;58.80;;;;;;6187746;23;20427;-68
2022/07/28 14:11:51;;;;;;;3.15;1.77;;;23.70;59.30;;;;;;6209938;23;20020;-67
2022/07/28 14:14:17;;;;;;;4.55;1.80;;;23.70;59.00;;;;;;6212085;23;20004;-68
2022/07/28 14:16:45;;;;;;;4.53;1.83;;;23.70;59.60;;;;;;6212115;23;20004;-68
2022/07/28 14:19:15;;;;;;;6.20;1.83;;;23.40;59.80;;;;;;6213041;23;20092;-67
2022/07/28 14:21:40;;;;;;;6.40;1.75;;;24.40;60.00;;;;;;6212239;23;19993;-68
2022/07/28 14:24:06;;;;;;;3.35;1.48;;;23.60;59.90;;;;;;6210865;23;20004;-68
2022/07/28 14:26:32;;;;;;;3.90;1.88;;;23.70;60.00;;;;;;6214217;23;20008;-67
2022/07/28 14:28:57;;;;;;;5.82;1.83;;;23.70;60.00;;;;;;6212127;23;20058;-67
2022/07/28 14:31:23;;;;;;;5.80;1.42;;;23.70;60.20;;;;;;6211941;23;20067;-68
2022/07/28 14:33:48;;;;;;;3.22;1.58;;;23.70;60.20;;;;;;6213928;23;20086;-68
2022/07/28 14:36:16;;;;;;;3.95;1.60;;;23.80;59.80;;;;;;6213745;23;20339;-68
2022/07/28 14:38:41;;;;;;;6.07;2.00;;;23.80;59.70;;;;;;6213887;23;20005;-67
2022/07/28 14:41:07;;;;;;;5.85;1.50;;;24.20;60.50;;;;;;6209915;23;20079;-80
2022/07/28 14:43:33;;;;;;;2.53;1.73;;;23.70;59.90;;;;;;6213257;23;20005;-81
2022/07/28 14:45:58;;;;;;;4.13;1.90;;;23.70;59.90;;;;;;6187936;23;19997;-78
2022/07/28 14:48:24;;;;;;;8.07;2.03;;;24.50;60.20;;;;;;6212260;23;20032;-83
2022/07/28 14:50:51;;;;;;;2.78;1.90;;;23.60;59.60;;;;;;6211390;23;20005;-77
2022/07/28 14:53:22;;;;;;;3.55;1.40;;;23.90;59.40;;;;;;6211657;23;20000;-80
2022/07/28 14:55:56;;;;;;;4.95;1.88;;;23.80;59.40;;;;;;6212932;23;20435;-82
2022/07/28 14:58:24;;;;;;;9.45;1.95;;;24.30;59.50;;;;;;6211539;23;20008;-81
2022/07/28 15:00:54;;;;;;;4.80;2.00;;;24.30;59.50;;;;;;6188232;23;20050;-81
2022/07/28 15:03:20;;;;;;;23.45;11.15;;;23.80;60.10;;;;;;6213323;23;20001;-80
2022/07/28 15:05:46;;;;;;;18.23;10.43;;;23.90;60.70;;;;;;6211554;23;20005;-80
2022/07/28 15:08:12;;;;;;;3.35;1.60;;;24.60;58.90;;;;;;6213643;23;20343;-79
2022/07/28 15:10:37;;;;;;;3.85;1.70;;;24.90;58.20;;;;;;6214138;23;20431;-79
2022/07/28 15:13:03;;;;;;;6.40;2.10;;;24.30;58.80;;;;;;6213098;23;20056;-80
2022/07/28 15:15:31;;;;;;;2.33;1.52;;;24.80;58.90;;;;;;6214494;23;20436;-82
2022/07/28 15:18:02;;;;;;;5.53;1.90;;;24.50;59.10;;;;;;6214286;23;20028;-81
2022/07/28 15:20:28;;;;;;;3.38;2.28;;;24.10;58.50;;;;;;6189577;23;20009;-81
2022/07/28 15:22:53;;;;;;;6.30;1.85;;;24.40;59.10;;;;;;6213977;23;20412;-82
2022/07/28 15:25:19;;;;;;;3.47;1.77;;;24.30;59.30;;;;;;6215002;23;20008;-82
2022/07/28 15:27:44;;;;;;;1.90;1.70;;;24.00;59.20;;;;;;6213126;23;20039;-80
2022/07/28 15:30:11;;;;;;;4.20;1.90;;;24.00;60.20;;;;;;6213543;23;20434;-82
2022/07/28 15:32:36;;;;;;;5.40;2.20;;;24.00;59.30;;;;;;6187929;23;20023;-82
2022/07/28 15:35:02;;;;;;;5.25;1.10;;;24.20;59.50;;;;;;6212263;23;20009;-81
2022/07/28 15:37:27;;;;;;;4.60;1.90;;;23.90;59.60;;;;;;6213096;23;20023;-81
2022/07/28 15:39:53;;;;;;;3.53;1.95;;;24.00;59.50;;;;;;6215027;23;20334;-82
2022/07/28 15:42:19;;;;;;;3.28;1.88;;;24.10;59.60;;;;;;6214972;23;20000;-82
2022/07/28 15:44:44;;;;;;;1.98;1.45;;;24.00;59.30;;;;;;6215307;23;20001;-82
2022/07/28 15:47:10;;;;;;;4.18;1.77;;;24.20;60.30;;;;;;6214754;23;19993;-80
2022/07/28 15:49:35;;;;;;;3.25;1.33;;;24.30;60.10;;;;;;6214588;23;20005;-69
2022/07/28 15:52:01;;;;;;;3.38;1.77;;;24.40;59.90;;;;;;6213547;23;20029;-69
2022/07/28 15:54:26;;;;;;;3.08;1.60;;;23.70;59.60;;;;;;6212912;23;20035;-77
2022/07/28 15:56:52;;;;;;;4.30;1.80;;;23.70;59.50;;;;;;6214719;23;20446;-78
2022/07/28 15:59:55;;;;;;;2.45;1.52;;;23.70;59.70;;;;;;6211530;23;20009;-78
2022/07/28 16:02:20;;;;;;;3.42;1.92;;;23.70;59.30;;;;;;6214174;23;20001;-78
2022/07/28 16:04:46;;;;;;;4.75;2.15;;;24.00;59.60;;;;;;6209173;23;20055;-78
2022/07/28 16:08:01;;;;;;;4.50;1.67;;;23.60;59.00;;;;;;6214042;23;20001;-84
2022/07/28 16:10:27;;;;;;;2.83;1.90;;;23.60;59.80;;;;;;6214849;23;20004;-69
2022/07/28 16:12:54;;;;;;;2.88;1.58;;;24.10;59.60;;;;;;6214624;23;20008;-69
2022/07/28 16:15:20;;;;;;;2.67;1.63;;;24.30;60.00;;;;;;6212360;23;20073;-69
2022/07/28 16:17:46;;;;;;;2.58;1.40;;;23.70;59.30;;;;;;6214462;23;20032;-70
2022/07/28 16:20:11;;;;;;;3.15;1.55;;;23.60;59.10;;;;;;6203766;23;20004;-68
2022/07/28 16:22:39;;;;;;;2.85;1.88;;;23.60;59.50;;;;;;6213398;23;20009;-68
2022/07/28 16:25:10;;;;;;;3.35;1.63;;;23.70;59.50;;;;;;6212047;23;20012;-69
2022/07/28 16:27:36;;;;;;;1.65;1.50;;;23.60;59.80;;;;;;6212811;23;20005;-70
2022/07/28 16:30:02;;;;;;;3.50;1.77;;;23.60;59.50;;;;;;6211386;23;20004;-71
2022/07/28 16:32:28;;;;;;;3.15;1.88;;;23.60;59.10;;;;;;6208186;23;20019;-72
2022/07/28 16:34:53;;;;;;;2.95;1.67;;;23.80;59.80;;;;;;6212834;23;20021;-71
2022/07/28 16:37:19;;;;;;;3.35;1.23;;;23.40;59.60;;;;;;6211437;23;20008;-70
2022/07/28 16:39:44;;;;;;;7.75;1.70;;;23.50;60.50;;;;;;6210732;23;20000;-71
2022/07/28 16:42:10;;;;;;;2.80;2.00;;;24.20;59.70;;;;;;6208928;23;20011;-78
2022/07/28 16:44:36;;;;;;;3.95;1.92;;;23.80;59.60;;;;;;6184741;23;19997;-78
2022/07/28 16:47:05;;;;;;;4.88;1.73;;;23.80;59.80;;;;;;6207637;23;20004;-78
2022/07/28 16:49:33;;;;;;;2.67;1.33;;;23.50;59.40;;;;;;6208725;23;20008;-83
2022/07/28 16:51:59;;;;;;;3.33;1.80;;;23.50;59.30;;;;;;6210233;23;20004;-81
2022/07/28 16:54:24;;;;;;;5.60;1.88;;;23.50;59.60;;;;;;6206771;23;20012;-80
2022/07/28 16:57:08;;;;;;;3.05;1.95;;;23.50;60.10;;;;;;6212471;23;20000;-84
2022/07/28 16:59:33;;;;;;;3.22;1.55;;;23.50;59.70;;;;;;6208886;23;20001;-77
2022/07/28 17:01:59;;;;;;;4.53;1.67;;;23.50;60.00;;;;;;6211256;23;20008;-70
2022/07/28 17:04:24;;;;;;;3.30;1.90;;;23.60;60.00;;;;;;6212856;23;20335;-71
2022/07/28 17:06:53;;;;;;;6.10;2.00;;;24.00;59.60;;;;;;6211904;23;20028;-81
2022/07/28 17:10:04;;;;;;;2.95;1.70;;;23.60;59.60;;;;;;6215283;23;20008;-83
2022/07/28 17:15:03;;;;;;;6.80;1.90;;;23.50;59.40;;;;;;6166086;23;20008;-70
2022/07/28 17:17:29;;;;;;;7.35;1.98;;;23.50;59.60;;;;;;6212847;23;20000;-70
2022/07/28 17:19:54;;;;;;;2.20;1.52;;;23.50;59.40;;;;;;6188835;23;20008;-70
2022/07/28 17:22:21;;;;;;;5.22;1.50;;;23.50;59.60;;;;;;6215702;23;20072;-70
2022/07/28 17:24:47;;;;;;;3.67;1.52;;;23.50;60.10;;;;;;6189448;23;20000;-70
2022/07/28 17:27:13;;;;;;;5.93;4.18;;;23.50;59.80;;;;;;6212042;23;20301;-69
2022/07/28 17:29:39;;;;;;;14.23;8.45;;;23.50;60.70;;;;;;6186936;23;20001;-71
2022/07/28 17:32:37;;;;;;;5.03;2.47;;;24.10;60.10;;;;;;6180758;23;20082;-80
2022/07/28 17:38:20;;;;;;;3.00;2.22;;;23.70;63.70;;;;;;6169467;23;20100;-81
2022/07/28 17:40:46;;;;;;;6.22;2.53;;;24.30;59.10;;;;;;6167692;23;20434;-78
2022/07/28 17:43:13;;;;;;;5.38;2.15;;;24.80;58.70;;;;;;6147515;23;20005;-75
2022/07/28 17:46:07;;;;;;;6.03;1.65;;;24.10;59.10;;;;;;6157935;23;20001;-80
2022/07/28 17:48:33;;;;;;;3.33;1.55;;;24.10;59.10;;;;;;6182576;23;20485;-82
2022/07/28 17:50:58;;;;;;;3.38;1.38;;;24.20;59.70;;;;;;6130156;23;20013;-73
2022/07/28 17:53:24;;;;;;;16.67;12.13;;;23.80;59.20;;;;;;6165948;23;20005;-68
2022/07/28 17:55:50;;;;;;;13.00;9.70;;;23.80;59.70;;;;;;6127520;23;20011;-68
2022/07/28 17:58:23;;;;;;;7.68;5.32;;;23.70;59.80;;;;;;6182595;23;20032;-68
2022/07/28 18:01:15;;;;;;;9.77;3.55;;;23.60;60.20;;;;;;6181237;23;20027;-82
2022/07/28 18:03:42;;;;;;;5.25;2.30;;;24.00;63.40;;;;;;6181594;23;20007;-81
2022/07/28 18:06:23;;;;;;;3.80;1.98;;;24.10;63.20;;;;;;6182190;23;20124;-84
2022/07/28 18:09:13;;;;;;;4.03;1.70;;;24.10;68.00;;;;;;6187532;23;20074;-83
2022/07/28 18:12:10;;;;;;;5.45;1.85;;;24.10;62.40;;;;;;6187091;23;20005;-85
2022/07/28 18:14:35;;;;;;;6.38;1.70;;;24.20;61.70;;;;;;6215526;23;20008;-80
2022/07/28 18:17:01;;;;;;;3.30;1.48;;;24.40;61.00;;;;;;6215385;23;20011;-81
2022/07/28 18:19:26;;;;;;;3.65;2.05;;;24.10;60.30;;;;;;6215122;23;20008;-81
2022/07/28 18:21:52;;;;;;;3.08;2.15;;;24.20;62.60;;;;;;6214259;23;19997;-78
2022/07/28 18:24:20;;;;;;;5.20;1.67;;;23.90;75.70;;;;;;6215336;23;20036;-81
2022/07/28 18:26:55;;;;;;;3.80;1.75;;;25.00;59.50;;;;;;6214668;23;20028;-80
2022/07/28 18:29:21;;;;;;;1.85;1.50;;;24.10;60.00;;;;;;6213467;23;20004;-82
2022/07/28 18:31:47;;;;;;;6.05;1.80;;;24.40;60.30;;;;;;6213980;23;20012;-80
2022/07/28 18:37:41;;;;;;;5.07;1.80;;;23.70;61.00;;;;;;6152681;23;20482;-83
2022/07/28 18:40:37;;;;;;;6.50;1.85;;;23.60;61.30;;;;;;6152587;23;19998;-83
2022/07/28 18:43:03;;;;;;;2.45;1.75;;;23.70;60.90;;;;;;6201486;23;20000;-81
2022/07/28 18:45:28;;;;;;;3.53;1.30;;;23.80;61.50;;;;;;6215768;23;20301;-81
2022/07/28 18:47:57;;;;;;;4.47;1.40;;;23.30;62.20;;;;;;6215206;23;20095;-79
2022/07/28 18:50:23;;;;;;;2.10;1.63;;;24.30;62.10;;;;;;6213669;23;20008;-80
2022/07/28 18:53:00;;;;;;;2.15;1.40;;;23.30;62.00;;;;;;6215529;23;20432;-85
2022/07/28 18:55:29;;;;;;;2.75;1.55;;;23.70;62.40;;;;;;6214012;23;20008;-81
2022/07/28 18:57:54;;;;;;;5.25;1.45;;;23.80;62.10;;;;;;6211324;23;20008;-81
2022/07/28 19:00:20;;;;;;;3.83;1.27;;;23.30;62.30;;;;;;6211898;23;20066;-69
2022/07/28 19:02:46;;;;;;;3.60;1.15;;;24.00;62.40;;;;;;6212782;23;20473;-70
2022/07/28 19:05:11;;;;;;;3.05;1.25;;;23.20;62.20;;;;;;6213803;23;20011;-69
2022/07/28 19:07:37;;;;;;;5.85;3.90;;;23.10;62.00;;;;;;6210279;23;20005;-69
2022/07/28 19:10:03;;;;;;;3.03;1.90;;;23.70;62.40;;;;;;6214372;23;20005;-69
2022/07/28 19:12:30;;;;;;;3.67;1.90;;;23.10;61.80;;;;;;6214238;23;20422;-69
2022/07/28 19:14:56;;;;;;;4.40;1.58;;;23.60;62.50;;;;;;6211920;23;20007;-70
2022/07/28 19:17:39;;;;;;;9.35;1.60;;;23.00;62.20;;;;;;6207748;23;20079;-84
2022/07/28 19:20:15;;;;;;;20.77;16.83;;;23.00;62.40;;;;;;6212325;23;20004;-80
2022/07/28 19:22:47;;;;;;;95.85;77.28;;;23.00;62.20;;;;;;6210156;23;20007;-82
2022/07/28 19:25:12;;;;;;;7.47;5.20;;;23.30;62.90;;;;;;6212690;23;19996;-79
2022/07/28 19:27:38;;;;;;;5.85;2.00;;;23.00;63.90;;;;;;6212952;23;20011;-80
2022/07/28 19:30:29;;;;;;;2.92;1.85;;;22.90;62.20;;;;;;6188192;23;20072;-82
2022/07/28 19:32:54;;;;;;;4.35;1.52;;;23.00;62.30;;;;;;6213092;23;20024;-78
2022/07/28 19:35:27;;;;;;;40.33;28.70;;;23.60;63.50;;;;;;6214398;23;20008;-82
2022/07/28 19:37:55;;;;;;;16.23;10.60;;;23.40;62.10;;;;;;6213408;23;20031;-76
2022/07/28 19:40:21;;;;;;;11.90;7.82;;;23.00;61.80;;;;;;6213331;23;20023;-78
2022/07/28 19:42:47;;;;;;;7.95;5.72;;;23.10;62.40;;;;;;6210483;23;20430;-78
2022/07/28 19:45:37;;;;;;;8.73;4.47;;;23.60;61.90;;;;;;6188060;23;20001;-82
2022/07/28 19:48:11;;;;;;;8.63;2.50;;;23.00;61.90;;;;;;6139669;23;20012;-79
2022/07/28 19:50:37;;;;;;;3.08;2.10;;;23.30;62.00;;;;;;6212977;23;20011;-76
2022/07/28 19:53:21;;;;;;;2.20;1.88;;;22.90;62.30;;;;;;6209000;23;20013;-69
2022/07/28 19:55:47;;;;;;;3.47;1.67;;;23.00;62.60;;;;;;6213480;23;20082;-69
2022/07/28 19:58:13;;;;;;;3.83;1.83;;;23.10;63.40;;;;;;6210077;23;20258;-69
2022/07/28 20:00:38;;;;;;;3.63;1.70;;;23.10;63.00;;;;;;6212048;23;20028;-68
2022/07/28 20:03:06;;;;;;;4.80;1.58;;;23.10;62.80;;;;;;6211871;23;20187;-69
2022/07/28 20:05:31;;;;;;;3.58;1.77;;;23.10;63.00;;;;;;6211220;23;20083;-69
2022/07/28 20:07:57;;;;;;;2.60;1.40;;;23.20;62.80;;;;;;6213848;23;20426;-70
2022/07/28 20:10:22;;;;;;;2.53;1.45;;;23.20;62.40;;;;;;6213937;23;20051;-69
2022/07/28 20:12:48;;;;;;;2.83;1.50;;;23.10;62.60;;;;;;6212645;23;20031;-70
2022/07/28 20:15:13;;;;;;;3.33;1.77;;;23.10;62.60;;;;;;6210092;23;20717;-70
2022/07/28 20:18:07;;;;;;;40.95;31.33;;;23.50;62.80;;;;;;6211175;23;20005;-69
2022/07/28 20:20:33;;;;;;;34.35;26.65;;;23.20;62.50;;;;;;6211990;23;20014;-69
2022/07/28 20:22:58;;;;;;;23.65;17.15;;;23.40;63.10;;;;;;6187472;23;20076;-70
2022/07/28 20:25:24;;;;;;;17.58;13.55;;;23.10;62.60;;;;;;6212722;23;20099;-69
2022/07/28 20:27:50;;;;;;;14.73;9.93;;;23.20;62.80;;;;;;6213841;23;20043;-70
2022/07/28 20:30:15;;;;;;;14.27;9.85;;;23.60;63.00;;;;;;6210831;23;20008;-70
2022/07/28 20:32:42;;;;;;;13.80;8.40;;;23.10;62.80;;;;;;6213429;23;20098;-69
2022/07/28 20:35:08;;;;;;;14.27;11.65;;;23.00;62.70;;;;;;6214107;23;20019;-70
2022/07/28 20:37:34;;;;;;;14.70;11.45;;;23.20;63.30;;;;;;6212034;23;20427;-69
2022/07/28 20:40:00;;;;;;;16.70;12.38;;;23.00;62.70;;;;;;6211040;23;20082;-69
2022/07/28 20:42:28;;;;;;;24.30;16.45;;;23.00;62.50;;;;;;6210178;23;20010;-69
2022/07/28 20:44:54;;;;;;;23.73;19.90;;;23.00;62.40;;;;;;6212848;23;20138;-71
2022/07/28 20:47:21;;;;;;;32.67;28.15;;;23.00;62.50;;;;;;6213960;23;20454;-70
2022/07/28 20:49:47;;;;;;;16.90;13.40;;;23.00;62.60;;;;;;6213337;23;20423;-71
2022/07/28 20:52:12;;;;;;;10.18;8.82;;;23.10;62.70;;;;;;6212583;23;20015;-70
2022/07/28 20:54:38;;;;;;;8.23;5.95;;;23.00;62.80;;;;;;6212667;23;20039;-69
2022/07/28 20:57:03;;;;;;;12.82;10.80;;;22.90;62.80;;;;;;6212235;23;20028;-69
2022/07/28 20:59:29;;;;;;;18.88;13.00;;;22.90;62.60;;;;;;6213675;23;20083;-69
2022/07/28 21:01:55;;;;;;;23.52;15.80;;;22.90;62.70;;;;;;6213895;23;20005;-69
2022/07/28 21:04:21;;;;;;;23.65;18.25;;;23.20;62.70;;;;;;6213678;23;20083;-69
2022/07/28 21:06:47;;;;;;;19.13;10.75;;;22.90;62.80;;;;;;6212761;23;19997;-69
2022/07/28 21:09:13;;;;;;;10.90;7.47;;;23.20;62.80;;;;;;6213948;23;20012;-69
2022/07/28 21:11:38;;;;;;;7.13;4.90;;;23.50;63.20;;;;;;6212055;23;20001;-69
2022/07/28 21:14:04;;;;;;;6.93;3.70;;;22.90;62.80;;;;;;6187087;23;20047;-68
2022/07/28 21:16:30;;;;;;;9.10;7.65;;;22.80;62.90;;;;;;6187598;23;20055;-69
2022/07/28 21:18:56;;;;;;;20.30;14.82;;;22.90;63.30;;;;;;6213559;23;20001;-69
2022/07/28 21:21:21;;;;;;;15.77;9.57;;;22.90;62.70;;;;;;6213495;23;20008;-69
2022/07/28 21:23:48;;;;;;;13.55;8.18;;;22.80;62.60;;;;;;6211308;23;20108;-69
2022/07/28 21:26:13;;;;;;;9.02;6.43;;;22.80;62.70;;;;;;6213228;23;20050;-69
2022/07/28 21:31:23;;;;;;;5.75;2.90;;;22.70;62.80;;;;;;6213791;23;20094;-70
2022/07/28 21:33:49;;;;;;;5.57;2.25;;;23.20;62.90;;;;;;6211038;23;20021;-69
2022/07/28 21:36:15;;;;;;;3.83;2.20;;;23.40;63.20;;;;;;6213491;23;20466;-73
2022/07/28 21:38:40;;;;;;;6.85;2.40;;;22.80;62.80;;;;;;6214213;23;20009;-72
2022/07/28 21:41:06;;;;;;;4.47;1.88;;;22.90;63.30;;;;;;6212172;23;20027;-70
2022/07/28 21:43:32;;;;;;;4.40;1.77;;;23.20;65.30;;;;;;6213946;23;20004;-69
2022/07/28 21:45:57;;;;;;;8.90;1.90;;;22.90;64.60;;;;;;6213584;23;20104;-70
2022/07/28 21:48:23;;;;;;;6.72;1.88;;;22.90;65.00;;;;;;6214482;23;20453;-69
2022/07/28 21:50:52;;;;;;;4.22;2.10;;;22.80;64.70;;;;;;6214709;23;20016;-70
2022/07/28 21:53:18;;;;;;;5.63;2.17;;;22.80;64.60;;;;;;6214430;23;20035;-70
2022/07/28 21:55:44;;;;;;;2.47;1.55;;;22.80;66.20;;;;;;6215659;23;20430;-69
2022/07/28 21:58:09;;;;;;;2.38;1.70;;;23.40;65.30;;;;;;6215051;23;20407;-73
2022/07/28 22:00:35;;;;;;;4.07;1.50;;;22.80;64.20;;;;;;6216057;23;20001;-76
2022/07/28 22:03:00;;;;;;;6.63;1.77;;;22.70;64.30;;;;;;6214498;23;20439;-77
2022/07/28 22:05:26;;;;;;;5.28;1.42;;;23.20;65.10;;;;;;6189087;23;20005;-78
2022/07/28 22:07:52;;;;;;;4.80;1.48;;;23.50;64.40;;;;;;6215627;23;20016;-78
2022/07/28 22:10:17;;;;;;;3.08;1.48;;;23.40;64.60;;;;;;6214251;23;19996;-79
2022/07/28 22:12:43;;;;;;;2.25;1.30;;;23.40;64.00;;;;;;6214648;23;20012;-78
2022/07/28 22:15:09;;;;;;;2.83;1.40;;;23.40;63.80;;;;;;6213932;23;20035;-78
2022/07/28 22:17:42;;;;;;;5.38;1.60;;;22.90;63.40;;;;;;6215635;23;20008;-79
2022/07/28 22:20:08;;;;;;;2.90;1.23;;;22.80;63.30;;;;;;6213564;23;20343;-78
2022/07/28 22:22:34;;;;;;;5.07;1.95;;;22.90;63.20;;;;;;6215414;23;20000;-75
2022/07/28 22:24:59;;;;;;;2.90;1.80;;;22.50;63.10;;;;;;6214262;23;20079;-75
2022/07/28 22:27:25;;;;;;;3.95;1.50;;;22.90;64.10;;;;;;6188010;23;20446;-70
2022/07/28 22:29:50;;;;;;;9.57;1.90;;;22.80;63.30;;;;;;6188360;23;20050;-77
2022/07/28 22:32:16;;;;;;;3.83;1.73;;;22.60;63.30;;;;;;6188591;23;20012;-76
2022/07/28 22:34:42;;;;;;;1.88;1.52;;;23.10;63.70;;;;;;6200549;23;20005;-76
2022/07/28 22:37:07;;;;;;;6.75;1.52;;;23.00;63.60;;;;;;6198782;23;20471;-74
2022/07/28 22:39:34;;;;;;;4.90;1.80;;;23.00;63.50;;;;;;6210151;23;20073;-74
2022/07/28 22:41:59;;;;;;;4.13;1.65;;;23.00;63.50;;;;;;6215608;23;19997;-73
2022/07/28 22:44:28;;;;;;;4.20;1.77;;;22.90;63.40;;;;;;6215456;23;20560;-78
2022/07/28 22:46:55;;;;;;;2.30;1.63;;;23.00;63.60;;;;;;6214383;23;20450;-74
2022/07/28 22:49:20;;;;;;;3.05;1.40;;;23.00;63.70;;;;;;6213687;23;20431;-75
2022/07/28 22:51:46;;;;;;;2.03;1.38;;;23.10;63.80;;;;;;6214193;23;20108;-75
2022/07/28 22:54:12;;;;;;;2.05;1.45;;;23.00;63.70;;;;;;6215534;23;20075;-74
2022/07/28 22:56:37;;;;;;;3.03;1.80;;;23.00;63.80;;;;;;6216124;23;20016;-74
2022/07/28 22:59:03;;;;;;;3.50;1.50;;;23.00;63.90;;;;;;6215671;23;20031;-74
2022/07/28 23:01:29;;;;;;;2.53;1.45;;;23.00;64.00;;;;;;6215232;23;20446;-74
2022/07/28 23:03:54;;;;;;;3.38;1.50;;;23.00;64.00;;;;;;6189569;23;20000;-74
2022/07/28 23:06:20;;;;;;;1.92;1.15;;;23.00;64.10;;;;;;6215173;23;19997;-74
2022/07/28 23:08:45;;;;;;;4.25;1.80;;;23.30;64.40;;;;;;6209157;23;20013;-74
2022/07/28 23:11:11;;;;;;;2.78;1.63;;;23.60;64.50;;;;;;6215756;23;20004;-74
2022/07/28 23:13:36;;;;;;;3.17;1.95;;;23.00;64.40;;;;;;6216027;23;20029;-75
2022/07/28 23:16:02;;;;;;;3.22;1.75;;;22.90;64.30;;;;;;6215837;23;20055;-74
2022/07/28 23:18:29;;;;;;;3.78;1.70;;;23.40;64.60;;;;;;6212116;23;20005;-74
2022/07/28 23:20:54;;;;;;;2.72;1.38;;;23.10;64.40;;;;;;6214048;23;20001;-73
2022/07/28 23:23:20;;;;;;;1.77;1.50;;;22.90;64.40;;;;;;6214082;23;20000;-74
2022/07/28 23:25:45;;;;;;;3.20;1.52;;;22.90;64.50;;;;;;6214038;23;20001;-74
2022/07/28 23:28:11;;;;;;;1.92;1.45;;;22.90;64.50;;;;;;6214180;23;20086;-75